Time;durP1;ratioP1;P1;durP2;ratioP2;P2;SDS_P1;SDS_P2;PMS_P1;PMS_P2;Temp;Humidity;BMP_temperature;BMP_pressure;BME280_temperature;BME280_humidity;BME280_pressure;Samples;Min_cycle;Max_cycle;Signal;HPM_P1;HPM_P2
2021/10/17 00:00:30;;;;;;;1.10;1.00;;;10.80;99.90;;;;;;5114534;27;20240;-76
2021/10/17 00:02:57;;;;;;;1.13;1.03;;;10.90;99.90;;;;;;5114947;27;20230;-76
2021/10/17 00:05:26;;;;;;;0.80;0.80;;;10.90;99.90;;;;;;5108480;27;20618;-76
2021/10/17 00:07:54;;;;;;;1.27;1.07;;;10.90;99.90;;;;;;5113411;27;20207;-76
2021/10/17 00:10:25;;;;;;;1.00;0.90;;;10.90;99.90;;;;;;5115185;27;20222;-76
2021/10/17 00:12:53;;;;;;;1.00;0.90;;;11.00;99.90;;;;;;5115166;27;20697;-76
2021/10/17 00:15:22;;;;;;;0.93;0.93;;;11.00;99.90;;;;;;5112735;27;20199;-77
2021/10/17 00:17:49;;;;;;;0.80;0.80;;;11.00;99.90;;;;;;5114383;27;20590;-75
2021/10/17 00:20:19;;;;;;;0.80;0.80;;;11.00;99.90;;;;;;5119926;27;20201;-75
2021/10/17 00:22:46;;;;;;;0.73;0.73;;;11.10;99.90;;;;;;5113631;27;20222;-76
2021/10/17 00:25:14;;;;;;;0.97;0.60;;;11.10;99.90;;;;;;5116939;27;20204;-76
2021/10/17 00:27:43;;;;;;;1.10;1.00;;;11.10;99.90;;;;;;5107605;28;20606;-76
2021/10/17 00:30:17;;;;;;;0.60;0.50;;;11.10;99.90;;;;;;5107619;28;20239;-76
2021/10/17 00:32:45;;;;;;;0.77;0.77;;;11.10;99.90;;;;;;5108558;27;20211;-76
2021/10/17 00:35:14;;;;;;;0.80;0.80;;;11.10;99.90;;;;;;5108618;28;20284;-75
2021/10/17 00:37:41;;;;;;;0.80;0.80;;;11.00;99.90;;;;;;5110684;27;20249;-76
2021/10/17 00:40:11;;;;;;;1.90;1.13;;;11.00;99.90;;;;;;5110256;27;20606;-76
2021/10/17 00:42:38;;;;;;;1.20;0.87;;;11.00;99.90;;;;;;5108845;27;20200;-76
2021/10/17 00:45:09;;;;;;;1.13;1.00;;;11.00;99.90;;;;;;5111348;27;20194;-76
2021/10/17 00:47:36;;;;;;;1.13;0.90;;;11.00;99.90;;;;;;5110129;27;20220;-76
2021/10/17 00:50:05;;;;;;;1.00;0.90;;;11.00;99.90;;;;;;5109752;28;20227;-75
2021/10/17 00:52:32;;;;;;;1.60;0.93;;;11.00;99.90;;;;;;5111802;27;20308;-76
2021/10/17 00:54:59;;;;;;;1.10;0.87;;;11.00;99.90;;;;;;5113225;27;20295;-76
2021/10/17 00:57:26;;;;;;;1.70;1.03;;;11.00;99.90;;;;;;5111395;27;20207;-76
2021/10/17 00:59:53;;;;;;;1.63;1.10;;;11.00;99.90;;;;;;5112531;27;20684;-76
2021/10/17 01:02:21;;;;;;;2.70;0.90;;;11.00;99.90;;;;;;5111786;28;20227;-76
2021/10/17 01:04:49;;;;;;;2.30;1.30;;;11.10;99.90;;;;;;5110335;28;20261;-76
2021/10/17 01:07:16;;;;;;;1.20;1.10;;;11.10;99.90;;;;;;5115486;28;20193;-76
2021/10/17 01:09:43;;;;;;;0.90;0.90;;;11.10;99.90;;;;;;5114428;28;20710;-75
2021/10/17 01:12:14;;;;;;;0.97;0.80;;;11.10;99.90;;;;;;5111837;28;20208;-75
2021/10/17 01:14:41;;;;;;;1.03;0.93;;;11.10;99.90;;;;;;5108445;28;20200;-76
2021/10/17 01:17:08;;;;;;;0.90;0.80;;;11.10;99.90;;;;;;5115283;28;20593;-75
2021/10/17 01:19:38;;;;;;;1.30;1.13;;;11.10;99.90;;;;;;5115466;28;20201;-76
2021/10/17 01:22:14;;;;;;;1.30;0.97;;;11.10;99.90;;;;;;5115325;27;20201;-76
2021/10/17 01:24:41;;;;;;;1.20;1.10;;;11.10;99.90;;;;;;5115139;28;20233;-76
2021/10/17 01:27:08;;;;;;;0.80;0.80;;;11.10;99.90;;;;;;5108506;28;20195;-76
2021/10/17 01:29:35;;;;;;;0.80;0.80;;;11.10;99.90;;;;;;5104763;28;20254;-76
2021/10/17 01:32:03;;;;;;;1.20;1.10;;;11.10;99.90;;;;;;5107368;28;20297;-76
2021/10/17 01:34:30;;;;;;;1.10;1.00;;;11.00;99.90;;;;;;5108414;28;20214;-76
2021/10/17 01:36:57;;;;;;;1.27;0.90;;;11.00;99.90;;;;;;5108569;28;20695;-76
2021/10/17 01:39:26;;;;;;;1.20;1.10;;;11.00;99.90;;;;;;5110910;27;20628;-76
2021/10/17 01:41:53;;;;;;;1.83;1.07;;;11.00;99.90;;;;;;5111865;27;20297;-77
2021/10/17 01:44:28;;;;;;;1.60;1.10;;;11.00;99.90;;;;;;5112349;27;20208;-76
2021/10/17 01:46:58;;;;;;;1.07;0.90;;;11.00;99.90;;;;;;5114363;27;20212;-76
2021/10/17 01:49:29;;;;;;;1.67;1.23;;;10.90;99.90;;;;;;5114313;27;20307;-76
2021/10/17 01:51:59;;;;;;;3.70;1.27;;;10.90;99.90;;;;;;5111394;28;20663;-75
2021/10/17 01:54:27;;;;;;;1.37;1.00;;;10.90;99.90;;;;;;5115609;27;20203;-76
2021/10/17 01:56:55;;;;;;;2.47;1.13;;;10.90;99.90;;;;;;5115063;27;20599;-76
2021/10/17 01:59:31;;;;;;;0.90;0.80;;;10.90;99.90;;;;;;5114030;27;20682;-76
2021/10/17 02:02:05;;;;;;;2.57;1.00;;;10.90;99.90;;;;;;5112018;27;20208;-76
2021/10/17 02:04:33;;;;;;;0.90;0.90;;;10.90;99.90;;;;;;5115185;27;20246;-77
2021/10/17 02:07:00;;;;;;;0.90;0.90;;;11.00;99.90;;;;;;5116678;27;20198;-76
2021/10/17 02:09:28;;;;;;;7.73;1.17;;;11.00;99.90;;;;;;5117109;27;20756;-76
2021/10/17 02:11:55;;;;;;;1.07;0.80;;;11.00;99.90;;;;;;5112351;27;20227;-76
2021/10/17 02:14:23;;;;;;;0.93;0.80;;;11.00;99.90;;;;;;5115001;27;20802;-76
2021/10/17 02:16:50;;;;;;;0.80;0.80;;;11.00;99.90;;;;;;5118015;27;20202;-76
2021/10/17 02:19:18;;;;;;;0.93;0.93;;;11.00;99.90;;;;;;5118676;27;20201;-76
2021/10/17 02:21:45;;;;;;;0.63;0.63;;;11.00;99.90;;;;;;5117967;27;20716;-76
2021/10/17 02:24:12;;;;;;;1.40;0.83;;;11.00;99.90;;;;;;5118606;27;20209;-76
2021/10/17 02:26:43;;;;;;;0.90;0.90;;;11.00;99.90;;;;;;5111036;28;20286;-76
2021/10/17 02:29:16;;;;;;;1.43;0.90;;;11.00;99.90;;;;;;5109625;27;20293;-76
2021/10/17 02:31:59;;;;;;;0.83;0.60;;;11.00;99.90;;;;;;5111133;27;20212;-75
2021/10/17 02:34:26;;;;;;;1.50;0.87;;;11.00;99.90;;;;;;5111148;28;20196;-75
2021/10/17 02:36:53;;;;;;;1.03;0.90;;;11.00;99.90;;;;;;5112064;27;20218;-75
2021/10/17 02:39:21;;;;;;;0.80;0.80;;;10.90;99.90;;;;;;5110891;28;20204;-75
2021/10/17 02:41:49;;;;;;;1.33;0.80;;;10.90;99.90;;;;;;5113554;27;20202;-76
2021/10/17 02:44:17;;;;;;;1.40;0.73;;;10.90;99.90;;;;;;5109407;27;20292;-76
2021/10/17 02:46:44;;;;;;;1.27;0.70;;;10.80;99.90;;;;;;5113651;27;20201;-76
2021/10/17 02:49:11;;;;;;;0.77;0.70;;;10.90;99.90;;;;;;5112337;27;20199;-75
2021/10/17 02:51:38;;;;;;;0.83;0.83;;;10.80;99.90;;;;;;5113513;27;20695;-75
2021/10/17 02:54:08;;;;;;;0.87;0.87;;;10.80;99.90;;;;;;5111981;27;20207;-75
2021/10/17 02:56:35;;;;;;;0.63;0.63;;;10.80;99.90;;;;;;5114654;27;20684;-75
2021/10/17 02:59:04;;;;;;;1.40;1.13;;;10.80;99.90;;;;;;5110948;27;20199;-76
2021/10/17 03:01:31;;;;;;;1.70;0.87;;;10.70;99.90;;;;;;5111782;27;20193;-76
2021/10/17 03:03:59;;;;;;;1.10;0.90;;;10.70;99.90;;;;;;5114473;27;20227;-76
2021/10/17 03:06:28;;;;;;;1.90;0.90;;;10.70;99.90;;;;;;5115623;27;20199;-76
2021/10/17 03:08:55;;;;;;;1.43;0.80;;;10.70;99.90;;;;;;5113702;27;20702;-77
2021/10/17 03:11:22;;;;;;;0.90;0.90;;;10.70;99.90;;;;;;5112499;27;20233;-75
2021/10/17 03:13:52;;;;;;;0.70;0.70;;;10.80;99.90;;;;;;5114255;27;20713;-75
2021/10/17 03:16:31;;;;;;;0.90;0.90;;;10.80;99.90;;;;;;5117198;27;20256;-76
2021/10/17 03:18:58;;;;;;;1.27;1.10;;;10.80;99.90;;;;;;5115910;27;20574;-75
2021/10/17 03:21:28;;;;;;;1.50;1.00;;;10.70;99.90;;;;;;5117885;27;20209;-75
2021/10/17 03:23:55;;;;;;;2.00;1.30;;;10.70;99.90;;;;;;5115709;27;20742;-75
2021/10/17 03:26:22;;;;;;;2.30;1.40;;;10.70;99.90;;;;;;5111515;27;20657;-76
2021/10/17 03:28:49;;;;;;;2.13;1.30;;;10.70;99.90;;;;;;5095247;27;20223;-76
2021/10/17 03:31:16;;;;;;;2.93;1.50;;;10.60;99.90;;;;;;5110156;28;20318;-76
2021/10/17 03:33:47;;;;;;;2.20;1.30;;;10.60;99.90;;;;;;5109810;28;20253;-76
2021/10/17 03:36:18;;;;;;;1.60;1.50;;;10.60;99.90;;;;;;5109688;28;20209;-76
2021/10/17 03:38:45;;;;;;;2.20;1.40;;;10.50;99.90;;;;;;5110792;27;20219;-76
2021/10/17 03:41:13;;;;;;;3.33;1.30;;;10.60;99.90;;;;;;5111430;27;20709;-76
2021/10/17 03:43:46;;;;;;;1.83;1.20;;;10.60;99.90;;;;;;5107421;28;20573;-76
2021/10/17 03:46:14;;;;;;;1.40;1.30;;;10.60;99.90;;;;;;5112027;27;21041;-76
2021/10/17 03:48:43;;;;;;;1.43;1.07;;;10.60;99.90;;;;;;5111867;27;20200;-76
2021/10/17 03:51:16;;;;;;;1.90;1.00;;;10.60;99.90;;;;;;5112939;27;20233;-76
2021/10/17 03:53:44;;;;;;;2.23;1.30;;;10.60;99.90;;;;;;5108787;28;20204;-76
2021/10/17 03:56:11;;;;;;;1.20;1.10;;;10.60;99.90;;;;;;5117265;27;20194;-76
2021/10/17 03:58:38;;;;;;;1.53;1.00;;;10.60;99.90;;;;;;5107764;28;20232;-76
2021/10/17 04:01:05;;;;;;;3.03;1.50;;;10.60;99.90;;;;;;5112763;27;20213;-76
2021/10/17 04:03:32;;;;;;;1.47;1.37;;;10.60;99.90;;;;;;5113976;27;20243;-76
2021/10/17 04:06:00;;;;;;;1.73;1.50;;;10.60;99.90;;;;;;5114266;27;20759;-76
2021/10/17 04:08:29;;;;;;;1.63;1.20;;;10.50;99.90;;;;;;5109776;28;20226;-76
2021/10/17 04:10:56;;;;;;;1.20;1.20;;;10.60;99.90;;;;;;5110043;27;20226;-76
2021/10/17 04:13:24;;;;;;;3.07;1.43;;;10.60;99.90;;;;;;5108674;27;20704;-76
2021/10/17 04:15:51;;;;;;;2.93;1.37;;;10.60;99.90;;;;;;5114582;27;20204;-75
2021/10/17 04:18:18;;;;;;;2.00;1.37;;;10.60;99.90;;;;;;5116759;27;20256;-76
2021/10/17 04:20:47;;;;;;;1.20;1.10;;;10.70;99.90;;;;;;5116790;27;20259;-75
2021/10/17 04:23:15;;;;;;;1.37;1.00;;;10.70;99.90;;;;;;5104473;27;20682;-75
2021/10/17 04:25:43;;;;;;;1.50;1.40;;;10.70;99.90;;;;;;5115316;27;20204;-76
2021/10/17 04:28:14;;;;;;;1.00;1.00;;;10.70;99.90;;;;;;5101525;27;20701;-75
2021/10/17 04:30:42;;;;;;;1.37;1.27;;;10.70;99.90;;;;;;5107712;28;20773;-75
2021/10/17 04:33:09;;;;;;;1.83;1.60;;;10.70;99.90;;;;;;5109107;27;21003;-76
2021/10/17 04:35:40;;;;;;;2.00;1.20;;;10.70;99.90;;;;;;5109194;27;20240;-75
2021/10/17 04:38:07;;;;;;;3.00;1.60;;;10.70;99.90;;;;;;5111094;28;20536;-76
2021/10/17 04:40:37;;;;;;;2.60;1.40;;;10.70;99.90;;;;;;5105337;28;20218;-76
2021/10/17 04:43:06;;;;;;;2.73;1.50;;;10.60;99.90;;;;;;5106370;27;20603;-76
2021/10/17 04:45:37;;;;;;;1.30;1.20;;;10.60;99.90;;;;;;5110687;27;20203;-76
2021/10/17 04:48:05;;;;;;;1.57;1.47;;;10.60;99.90;;;;;;5111176;27;20218;-76
2021/10/17 04:50:32;;;;;;;1.97;1.23;;;10.60;99.90;;;;;;5108475;28;20227;-75
2021/10/17 04:52:59;;;;;;;2.13;1.40;;;10.60;99.90;;;;;;5110908;27;20297;-76
2021/10/17 04:55:26;;;;;;;2.77;1.60;;;10.60;99.90;;;;;;5111543;28;20295;-76
2021/10/17 04:57:53;;;;;;;2.70;1.60;;;10.60;99.90;;;;;;5106986;28;20202;-76
2021/10/17 05:00:25;;;;;;;1.27;1.17;;;10.60;99.90;;;;;;5111751;28;20197;-76
2021/10/17 05:02:59;;;;;;;1.80;1.33;;;10.60;99.90;;;;;;5108716;28;20240;-77
2021/10/17 05:05:27;;;;;;;3.63;1.67;;;10.60;99.90;;;;;;5111108;28;20197;-77
2021/10/17 05:07:56;;;;;;;4.73;1.53;;;10.70;99.90;;;;;;5111475;27;20219;-77
2021/10/17 05:10:23;;;;;;;1.60;1.50;;;10.70;99.90;;;;;;5114328;28;20234;-76
2021/10/17 05:12:51;;;;;;;4.37;1.60;;;10.60;99.90;;;;;;5115071;27;20207;-76
2021/10/17 05:15:19;;;;;;;1.70;1.30;;;10.60;99.90;;;;;;5114852;27;20229;-77
2021/10/17 05:17:48;;;;;;;1.20;1.10;;;10.70;99.90;;;;;;5115834;27;20249;-76
2021/10/17 05:20:16;;;;;;;1.93;1.33;;;10.70;99.90;;;;;;5122611;27;20210;-76
2021/10/17 05:22:44;;;;;;;1.60;1.17;;;10.70;99.90;;;;;;5115642;27;20554;-76
2021/10/17 05:25:13;;;;;;;2.10;1.30;;;10.70;99.90;;;;;;5119898;27;20203;-76
2021/10/17 05:27:41;;;;;;;3.20;1.63;;;10.70;99.90;;;;;;5111245;28;20724;-75
2021/10/17 05:30:10;;;;;;;1.97;1.30;;;10.70;99.90;;;;;;5110409;27;20268;-77
2021/10/17 05:32:37;;;;;;;1.93;1.73;;;10.70;99.90;;;;;;5111959;27;20209;-76
2021/10/17 05:35:06;;;;;;;2.23;1.37;;;10.70;99.90;;;;;;5112877;27;20197;-76
2021/10/17 05:37:33;;;;;;;3.57;1.83;;;10.70;99.90;;;;;;5113070;27;20197;-76
2021/10/17 05:40:02;;;;;;;2.07;1.20;;;10.70;99.90;;;;;;5113632;27;20201;-76
2021/10/17 05:42:30;;;;;;;2.70;1.20;;;10.70;99.90;;;;;;5110839;28;20215;-76
2021/10/17 05:44:58;;;;;;;1.90;1.20;;;10.70;99.90;;;;;;5112725;27;20200;-76
2021/10/17 05:47:25;;;;;;;1.13;1.03;;;10.70;99.90;;;;;;5113947;27;20214;-76
2021/10/17 05:49:54;;;;;;;2.93;1.40;;;10.80;99.90;;;;;;5114332;27;20215;-78
2021/10/17 05:52:23;;;;;;;1.60;1.10;;;10.80;99.90;;;;;;5111937;28;20220;-75
2021/10/17 05:54:51;;;;;;;2.37;1.30;;;10.80;99.90;;;;;;5112363;27;20199;-76
2021/10/17 05:57:19;;;;;;;4.30;1.40;;;10.90;99.90;;;;;;5114325;27;20204;-77
2021/10/17 05:59:47;;;;;;;1.93;1.00;;;10.90;99.90;;;;;;5114304;27;20218;-76
2021/10/17 06:02:15;;;;;;;1.80;1.10;;;10.90;99.90;;;;;;5113107;27;20212;-76
2021/10/17 06:04:46;;;;;;;1.93;1.27;;;10.90;99.90;;;;;;5113257;27;20238;-77
2021/10/17 06:07:23;;;;;;;1.33;0.93;;;10.90;99.90;;;;;;5113575;27;20232;-75
2021/10/17 06:09:50;;;;;;;1.27;1.10;;;10.90;99.90;;;;;;5116754;27;20754;-76
2021/10/17 06:12:21;;;;;;;1.20;1.00;;;11.00;99.90;;;;;;5120233;27;20224;-76
2021/10/17 06:14:49;;;;;;;2.53;1.10;;;11.00;99.90;;;;;;5115731;27;20290;-76
2021/10/17 06:17:17;;;;;;;2.63;1.30;;;11.00;99.90;;;;;;5121457;27;20199;-76
2021/10/17 06:19:44;;;;;;;1.47;1.30;;;11.10;99.90;;;;;;5117153;27;20282;-75
2021/10/17 06:22:11;;;;;;;2.87;1.30;;;11.10;99.90;;;;;;5111044;28;20675;-76
2021/10/17 06:24:43;;;;;;;1.80;1.10;;;11.10;99.90;;;;;;5109472;28;20679;-75
2021/10/17 06:27:10;;;;;;;1.53;1.20;;;11.20;99.90;;;;;;5110244;28;20201;-75
2021/10/17 06:29:38;;;;;;;0.97;0.97;;;11.30;99.90;;;;;;5109350;27;20794;-76
2021/10/17 06:32:06;;;;;;;1.40;1.30;;;11.30;99.90;;;;;;5110940;28;20689;-76
2021/10/17 06:34:39;;;;;;;3.50;1.50;;;11.40;99.90;;;;;;5110963;27;20200;-77
2021/10/17 06:37:06;;;;;;;2.00;1.40;;;11.40;99.90;;;;;;5112091;27;20575;-76
2021/10/17 06:39:34;;;;;;;2.77;1.57;;;11.40;99.90;;;;;;5111986;27;20203;-76
2021/10/17 06:42:04;;;;;;;1.90;1.27;;;11.40;99.90;;;;;;5107590;27;20199;-76
2021/10/17 06:44:51;;;;;;;1.97;1.30;;;11.40;99.90;;;;;;5049386;28;20252;-76
2021/10/17 06:47:18;;;;;;;2.43;1.50;;;11.40;99.90;;;;;;5032148;28;20210;-76
2021/10/17 06:49:45;;;;;;;1.20;1.10;;;11.40;99.90;;;;;;5034745;28;20213;-76
2021/10/17 06:52:12;;;;;;;1.57;1.47;;;11.50;99.90;;;;;;5035199;28;20274;-76
2021/10/17 06:54:40;;;;;;;2.37;1.60;;;11.50;99.90;;;;;;5047774;28;20718;-75
2021/10/17 06:57:08;;;;;;;5.57;1.53;;;11.50;99.90;;;;;;5036050;28;20211;-76
2021/10/17 06:59:36;;;;;;;2.90;1.60;;;11.50;99.90;;;;;;5034399;28;20211;-76
2021/10/17 07:02:04;;;;;;;6.07;1.60;;;11.50;99.90;;;;;;5048633;28;20294;-76
2021/10/17 07:04:32;;;;;;;2.30;1.60;;;11.60;99.90;;;;;;5030972;28;20313;-76
2021/10/17 07:07:00;;;;;;;2.33;1.67;;;11.60;99.90;;;;;;5048135;28;20204;-76
2021/10/17 07:09:30;;;;;;;3.07;1.73;;;11.60;99.90;;;;;;5043418;28;20298;-75
2021/10/17 07:12:09;;;;;;;1.30;1.20;;;11.60;99.90;;;;;;5049066;28;20230;-76
2021/10/17 07:14:37;;;;;;;4.40;1.80;;;11.60;99.90;;;;;;5029992;28;20202;-76
2021/10/17 07:17:24;;;;;;;3.10;1.50;;;11.70;99.90;;;;;;5048483;28;20202;-76
2021/10/17 07:19:51;;;;;;;1.33;1.10;;;11.70;99.90;;;;;;5026330;28;20204;-75
2021/10/17 07:22:18;;;;;;;1.23;1.13;;;11.80;99.90;;;;;;5070473;28;20286;-76
2021/10/17 07:24:51;;;;;;;3.23;1.60;;;11.80;99.90;;;;;;5083730;28;20198;-76
2021/10/17 07:27:20;;;;;;;1.83;1.20;;;11.90;99.90;;;;;;5082440;28;20680;-76
2021/10/17 07:29:47;;;;;;;4.00;1.70;;;11.90;99.90;;;;;;5086034;28;20205;-75
2021/10/17 07:32:15;;;;;;;2.97;1.80;;;12.00;99.90;;;;;;5089292;28;20631;-76
2021/10/17 07:34:42;;;;;;;2.93;1.37;;;12.00;99.90;;;;;;5087377;28;20204;-76
2021/10/17 07:37:14;;;;;;;2.10;1.50;;;12.00;99.90;;;;;;5088112;28;20222;-76
2021/10/17 07:39:41;;;;;;;1.53;1.40;;;12.00;99.90;;;;;;5086116;28;20200;-76
2021/10/17 07:42:08;;;;;;;2.97;1.43;;;12.10;99.90;;;;;;5086892;28;20738;-76
2021/10/17 07:44:39;;;;;;;1.50;1.37;;;12.10;99.90;;;;;;5082763;28;20292;-75
2021/10/17 07:47:13;;;;;;;2.33;1.57;;;12.10;99.90;;;;;;5086562;28;20602;-75
2021/10/17 07:49:53;;;;;;;4.80;1.60;;;12.20;99.90;;;;;;5083469;28;20319;-76
2021/10/17 07:52:24;;;;;;;1.57;1.40;;;12.30;99.80;;;;;;5084723;28;20220;-77
2021/10/17 07:54:51;;;;;;;2.43;1.50;;;12.30;99.80;;;;;;5098446;28;20732;-76
2021/10/17 07:57:45;;;;;;;2.80;1.47;;;12.40;99.60;;;;;;5080771;28;20744;-76
2021/10/17 08:00:19;;;;;;;2.27;1.53;;;12.40;99.40;;;;;;5074774;28;20214;-76
2021/10/17 08:03:02;;;;;;;3.70;1.70;;;12.40;99.30;;;;;;5079174;28;20199;-76
2021/10/17 08:05:29;;;;;;;2.77;1.27;;;12.50;99.20;;;;;;5111774;27;20214;-76
2021/10/17 08:07:58;;;;;;;3.10;1.30;;;12.60;99.10;;;;;;5112725;27;20199;-75
2021/10/17 08:10:25;;;;;;;6.30;3.23;;;12.70;98.90;;;;;;5116548;27;20250;-77
2021/10/17 08:12:52;;;;;;;2.03;1.83;;;12.80;98.70;;;;;;5114889;27;20218;-76
2021/10/17 08:15:21;;;;;;;4.07;1.90;;;13.00;98.50;;;;;;5110462;27;20208;-77
2021/10/17 08:17:54;;;;;;;4.00;1.93;;;13.00;98.10;;;;;;5112103;27;20210;-75
2021/10/17 08:20:30;;;;;;;4.37;2.30;;;13.10;97.90;;;;;;5121998;27;20255;-76
2021/10/17 08:22:57;;;;;;;4.20;2.17;;;13.10;97.80;;;;;;5111282;27;20206;-76
2021/10/17 08:25:27;;;;;;;2.43;1.83;;;13.20;97.60;;;;;;5117256;27;20242;-76
2021/10/17 08:27:58;;;;;;;5.27;1.83;;;13.20;97.50;;;;;;5107656;28;20207;-76
2021/10/17 08:30:30;;;;;;;3.07;1.50;;;13.20;97.40;;;;;;5095627;28;20207;-76
2021/10/17 08:32:58;;;;;;;4.00;1.80;;;13.30;97.30;;;;;;5109657;27;20315;-76
2021/10/17 08:35:27;;;;;;;2.80;1.70;;;13.30;97.20;;;;;;5109789;27;20200;-77
2021/10/17 08:37:55;;;;;;;3.67;1.77;;;13.30;97.10;;;;;;5109288;28;20211;-76
2021/10/17 08:40:48;;;;;;;1.60;1.40;;;13.20;97.00;;;;;;5059015;28;20224;-76
2021/10/17 08:43:43;;;;;;;3.90;1.67;;;13.30;97.10;;;;;;5065589;28;20893;-76
2021/10/17 08:46:30;;;;;;;4.40;1.63;;;13.30;97.10;;;;;;5068291;28;20216;-76
2021/10/17 08:49:04;;;;;;;2.80;1.57;;;13.30;97.00;;;;;;5065937;28;20220;-76
2021/10/17 08:51:33;;;;;;;3.17;1.67;;;13.40;96.90;;;;;;5064107;28;20320;-76
2021/10/17 08:54:05;;;;;;;2.77;1.93;;;13.40;97.00;;;;;;5050340;28;20200;-77
2021/10/17 08:56:35;;;;;;;3.70;1.87;;;13.40;96.90;;;;;;5055031;28;20364;-76
2021/10/17 08:59:03;;;;;;;4.17;1.90;;;13.40;96.90;;;;;;5049470;28;20205;-76
2021/10/17 09:01:50;;;;;;;3.87;1.93;;;13.40;96.80;;;;;;5066456;28;20258;-76
2021/10/17 09:04:26;;;;;;;1.43;1.30;;;13.40;96.70;;;;;;5070116;28;20245;-76
2021/10/17 09:07:23;;;;;;;2.20;1.60;;;13.40;96.50;;;;;;5053930;28;20584;-76
2021/10/17 09:10:25;;;;;;;2.83;1.77;;;13.40;96.50;;;;;;4996444;28;20215;-75
2021/10/17 09:13:07;;;;;;;1.80;1.53;;;13.40;96.40;;;;;;4986134;28;20660;-75
2021/10/17 09:15:34;;;;;;;3.87;2.13;;;13.40;96.30;;;;;;4985932;28;20344;-76
2021/10/17 09:18:12;;;;;;;4.00;1.53;;;13.40;96.20;;;;;;5007974;28;20333;-75
2021/10/17 09:20:54;;;;;;;2.10;1.70;;;13.40;96.40;;;;;;5032669;28;20197;-76
2021/10/17 09:23:34;;;;;;;4.70;2.50;;;13.40;95.90;;;;;;5011709;28;20210;-76
2021/10/17 09:26:08;;;;;;;2.43;1.83;;;13.50;96.20;;;;;;5030126;28;20715;-76
2021/10/17 09:28:35;;;;;;;1.60;1.50;;;13.70;95.80;;;;;;5025642;28;20259;-76
2021/10/17 09:31:04;;;;;;;2.17;1.27;;;13.80;95.60;;;;;;5026455;28;20234;-76
2021/10/17 09:33:33;;;;;;;1.60;1.50;;;14.00;95.50;;;;;;5027568;28;20736;-76
2021/10/17 09:36:00;;;;;;;3.27;1.30;;;14.20;95.20;;;;;;5026493;28;20204;-76
2021/10/17 09:39:07;;;;;;;2.33;1.70;;;14.40;95.00;;;;;;4986731;28;20212;-76
2021/10/17 09:41:36;;;;;;;2.70;1.60;;;14.70;94.40;;;;;;4987305;28;20716;-76
2021/10/17 09:44:05;;;;;;;2.93;1.80;;;15.10;93.90;;;;;;5000699;28;20659;-76
2021/10/17 09:46:56;;;;;;;5.10;1.70;;;15.60;93.00;;;;;;5048921;28;20212;-77
2021/10/17 09:49:25;;;;;;;1.93;1.50;;;16.50;91.80;;;;;;5049150;28;20685;-76
2021/10/17 09:52:10;;;;;;;1.63;1.40;;;17.40;90.50;;;;;;5055558;28;20231;-76
2021/10/17 09:54:37;;;;;;;3.13;1.73;;;18.10;88.40;;;;;;5049288;28;20209;-76
2021/10/17 09:57:06;;;;;;;3.60;1.70;;;18.50;85.20;;;;;;5065439;28;20217;-77
2021/10/17 09:59:34;;;;;;;2.43;1.60;;;18.70;84.40;;;;;;5065127;28;20197;-77
2021/10/17 10:02:01;;;;;;;3.13;1.80;;;18.60;83.40;;;;;;5069528;28;20201;-77
2021/10/17 10:04:30;;;;;;;2.00;1.40;;;18.40;82.30;;;;;;5052560;28;20609;-77
2021/10/17 10:06:59;;;;;;;3.43;1.77;;;18.10;82.10;;;;;;5064675;28;20596;-77
2021/10/17 10:09:31;;;;;;;2.27;1.37;;;17.90;82.00;;;;;;5052737;28;20212;-77
2021/10/17 10:11:59;;;;;;;1.60;1.43;;;17.70;82.30;;;;;;5052614;28;20213;-77
2021/10/17 10:14:27;;;;;;;2.03;1.63;;;17.60;82.40;;;;;;5048843;28;20208;-77
2021/10/17 10:16:56;;;;;;;2.73;1.70;;;17.60;82.30;;;;;;5116198;27;20231;-77
2021/10/17 10:19:25;;;;;;;4.67;1.70;;;17.70;81.90;;;;;;5117184;27;20226;-77
2021/10/17 10:21:53;;;;;;;2.07;1.60;;;18.10;80.80;;;;;;5117681;27;20632;-76
2021/10/17 10:24:21;;;;;;;2.17;1.97;;;18.70;79.80;;;;;;5120268;27;20201;-77
2021/10/17 10:26:53;;;;;;;2.23;1.80;;;19.10;76.90;;;;;;5110848;28;20634;-77
2021/10/17 10:29:25;;;;;;;2.20;1.93;;;19.20;75.80;;;;;;5111737;28;20247;-77
2021/10/17 10:31:53;;;;;;;1.60;1.50;;;19.20;75.30;;;;;;5111970;27;20211;-77
2021/10/17 10:35:03;;;;;;;4.45;1.90;;;19.20;76.00;;;;;;5113206;28;20283;-77
2021/10/17 10:37:33;;;;;;;3.47;2.20;;;19.10;75.10;;;;;;5103893;27;20241;-77
2021/10/17 10:40:15;;;;;;;2.72;1.60;;;19.10;74.80;;;;;;5112772;27;20207;-77
2021/10/17 10:42:44;;;;;;;3.17;1.77;;;19.10;74.20;;;;;;5106951;27;20245;-77
2021/10/17 10:45:22;;;;;;;2.22;2.03;;;19.20;73.30;;;;;;5114225;27;20212;-78
2021/10/17 10:48:09;;;;;;;2.13;1.63;;;19.10;72.70;;;;;;5112590;27;20275;-76
2021/10/17 10:50:39;;;;;;;3.78;2.00;;;19.10;72.30;;;;;;5111835;27;20294;-77
2021/10/17 10:53:09;;;;;;;4.55;2.10;;;19.20;71.50;;;;;;5114469;27;20284;-77
2021/10/17 10:55:46;;;;;;;1.55;1.45;;;20.00;70.70;;;;;;5117220;27;20207;-77
2021/10/17 10:58:22;;;;;;;2.78;1.88;;;21.40;68.60;;;;;;5111461;27;20948;-78
2021/10/17 11:00:49;;;;;;;3.92;2.40;;;22.50;65.00;;;;;;5113433;27;20219;-78
2021/10/17 11:03:17;;;;;;;5.85;3.00;;;22.50;62.10;;;;;;5114801;27;20196;-77
2021/10/17 11:06:14;;;;;;;5.43;3.10;;;22.60;61.10;;;;;;5114418;27;20210;-77
2021/10/17 11:08:43;;;;;;;4.03;2.42;;;22.80;60.30;;;;;;5113023;27;20587;-77
2021/10/17 11:11:13;;;;;;;5.05;2.58;;;22.80;59.90;;;;;;5114235;27;20278;-76
2021/10/17 11:13:42;;;;;;;3.28;2.25;;;22.60;59.00;;;;;;5115029;27;20228;-77
2021/10/17 11:16:20;;;;;;;2.58;2.15;;;22.40;58.70;;;;;;5116342;27;20210;-76
2021/10/17 11:18:47;;;;;;;4.22;1.85;;;22.00;57.30;;;;;;5115764;27;20675;-76
2021/10/17 11:21:15;;;;;;;1.95;1.48;;;21.60;57.70;;;;;;5120382;27;20198;-77
2021/10/17 11:23:44;;;;;;;1.58;1.48;;;21.20;58.20;;;;;;5115309;27;20285;-77
2021/10/17 11:26:13;;;;;;;1.65;1.55;;;21.00;58.60;;;;;;5112287;27;20311;-77
2021/10/17 11:28:47;;;;;;;3.22;1.45;;;20.70;58.80;;;;;;5110375;27;20225;-77
2021/10/17 11:31:16;;;;;;;2.30;1.52;;;20.50;58.90;;;;;;5110934;27;20245;-77
2021/10/17 11:33:45;;;;;;;3.28;1.63;;;20.20;58.80;;;;;;5109965;28;20414;-77
2021/10/17 11:36:14;;;;;;;1.67;1.10;;;19.90;58.80;;;;;;5111065;27;20212;-78
2021/10/17 11:38:43;;;;;;;1.65;1.40;;;19.70;59.00;;;;;;5109653;28;20211;-76
2021/10/17 11:41:12;;;;;;;1.58;1.20;;;19.40;59.50;;;;;;5111984;27;20698;-77
2021/10/17 11:43:41;;;;;;;1.50;1.40;;;19.10;59.70;;;;;;5108723;28;20204;-77
2021/10/17 11:46:10;;;;;;;2.13;1.45;;;19.00;60.20;;;;;;5111840;27;20199;-76
2021/10/17 11:48:38;;;;;;;2.42;1.58;;;18.80;60.30;;;;;;5118750;27;20605;-78
2021/10/17 11:51:08;;;;;;;2.72;2.03;;;18.60;60.50;;;;;;5113843;27;20643;-77
2021/10/17 11:53:36;;;;;;;2.40;1.70;;;18.50;61.10;;;;;;5106025;28;20224;-76
2021/10/17 11:56:09;;;;;;;2.42;1.73;;;18.40;61.50;;;;;;5115599;27;20195;-77
2021/10/17 11:58:37;;;;;;;2.35;1.63;;;18.40;61.90;;;;;;5107831;28;20212;-77
2021/10/17 12:01:12;;;;;;;2.33;1.60;;;18.40;62.00;;;;;;5114311;27;20199;-76
2021/10/17 12:03:41;;;;;;;3.83;2.30;;;18.40;62.20;;;;;;5113793;27;20624;-77
2021/10/17 12:06:14;;;;;;;5.90;4.47;;;18.30;62.10;;;;;;5106241;27;20210;-78
2021/10/17 12:08:42;;;;;;;6.97;3.60;;;18.30;62.00;;;;;;5111643;27;20845;-78
2021/10/17 12:11:15;;;;;;;5.37;3.20;;;18.20;62.00;;;;;;5112964;27;20275;-77
2021/10/17 12:14:03;;;;;;;4.28;3.00;;;18.20;62.20;;;;;;5113154;27;20561;-77
2021/10/17 12:16:36;;;;;;;3.55;2.33;;;18.20;62.20;;;;;;5115823;27;20206;-77
2021/10/17 12:19:05;;;;;;;2.72;2.13;;;18.20;62.40;;;;;;5116320;27;20710;-77
2021/10/17 12:21:33;;;;;;;2.50;1.70;;;18.10;62.40;;;;;;5116196;27;20199;-77
2021/10/17 12:24:01;;;;;;;1.70;1.60;;;18.10;62.60;;;;;;5116822;27;20273;-77
2021/10/17 12:26:36;;;;;;;4.78;2.97;;;18.10;62.70;;;;;;5110917;27;20248;-77
2021/10/17 12:29:06;;;;;;;6.32;3.50;;;18.10;62.60;;;;;;5108078;28;20996;-77
2021/10/17 12:31:33;;;;;;;3.33;2.63;;;18.10;62.50;;;;;;5109511;27;20294;-78
2021/10/17 12:34:03;;;;;;;5.50;2.60;;;18.00;62.00;;;;;;5108156;28;20223;-76
2021/10/17 12:36:30;;;;;;;2.83;1.92;;;18.00;62.20;;;;;;5111367;27;20214;-77
2021/10/17 12:39:03;;;;;;;2.85;1.70;;;18.00;62.20;;;;;;5109640;27;20213;-78
2021/10/17 12:41:31;;;;;;;2.45;1.65;;;17.90;61.80;;;;;;5106182;28;20207;-77
2021/10/17 12:44:02;;;;;;;2.42;2.08;;;17.80;61.70;;;;;;5107249;28;20527;-77
2021/10/17 12:46:31;;;;;;;3.13;2.20;;;17.70;62.00;;;;;;5112919;27;20205;-78
2021/10/17 12:49:07;;;;;;;3.75;2.25;;;17.70;62.20;;;;;;5112833;27;20190;-77
2021/10/17 12:51:37;;;;;;;4.70;2.00;;;17.70;62.10;;;;;;5110155;27;20296;-76
2021/10/17 12:54:15;;;;;;;4.38;2.38;;;17.70;61.90;;;;;;5109885;27;20284;-77
2021/10/17 12:56:57;;;;;;;4.87;2.60;;;17.70;62.10;;;;;;5113332;27;20613;-77
2021/10/17 12:59:26;;;;;;;4.28;2.90;;;17.70;62.10;;;;;;5110319;28;20204;-77
2021/10/17 13:02:05;;;;;;;5.22;3.10;;;17.70;62.20;;;;;;5108298;28;20198;-78
2021/10/17 13:04:41;;;;;;;3.80;2.80;;;17.70;62.30;;;;;;5113284;28;20594;-77